Time;durP1;ratioP1;P1;durP2;ratioP2;P2;SDS_P1;SDS_P2;PMS_P1;PMS_P2;Temp;Humidity;BMP_temperature;BMP_pressure;BME280_temperature;BME280_humidity;BME280_pressure;Samples;Min_cycle;Max_cycle;Signal;HPM_P1;HPM_P2
2022/01/09 00:02:26;;;;;;;1.33;1.23;;;5.30;99.90;;;;;;4980108;28;20278;-72
2022/01/09 00:04:52;;;;;;;1.85;1.02;;;5.30;99.90;;;;;;4961951;28;20196;-71
2022/01/09 00:07:19;;;;;;;0.70;0.70;;;5.30;99.90;;;;;;4980027;28;20313;-71
2022/01/09 00:09:45;;;;;;;0.77;0.70;;;5.30;99.90;;;;;;4980295;28;20771;-72
2022/01/09 00:12:12;;;;;;;0.63;0.63;;;5.30;99.90;;;;;;4961770;28;20230;-72
2022/01/09 00:14:39;;;;;;;0.60;0.60;;;5.30;99.90;;;;;;4979583;28;20207;-72
2022/01/09 00:17:07;;;;;;;0.60;0.50;;;5.40;99.90;;;;;;4979096;28;20211;-72
2022/01/09 00:19:34;;;;;;;0.60;0.60;;;5.40;99.90;;;;;;4979651;28;20286;-72
2022/01/09 00:22:00;;;;;;;0.70;0.60;;;5.40;99.90;;;;;;4979408;28;20235;-72
2022/01/09 00:24:26;;;;;;;0.60;0.60;;;5.40;99.90;;;;;;4991519;28;20210;-72
2022/01/09 00:26:53;;;;;;;1.40;0.85;;;5.50;99.90;;;;;;5000000;28;20222;-72
2022/01/09 00:29:19;;;;;;;1.55;0.63;;;5.40;99.90;;;;;;4994125;28;20203;-72
2022/01/09 00:31:46;;;;;;;0.60;0.60;;;5.50;99.90;;;;;;4962856;28;20566;-72
2022/01/09 00:34:12;;;;;;;0.60;0.60;;;5.50;99.90;;;;;;4980336;28;20200;-72
2022/01/09 00:36:39;;;;;;;0.70;0.70;;;5.50;99.90;;;;;;4978208;28;20207;-71
2022/01/09 00:39:05;;;;;;;0.50;0.50;;;5.50;99.90;;;;;;4977797;28;20214;-71
2022/01/09 00:41:32;;;;;;;1.65;0.50;;;5.50;99.90;;;;;;4962390;28;20207;-71
2022/01/09 00:43:58;;;;;;;0.60;0.60;;;5.50;99.90;;;;;;4962271;28;20338;-72
2022/01/09 00:46:24;;;;;;;2.78;0.60;;;5.50;99.90;;;;;;4979641;28;20246;-72
2022/01/09 00:48:51;;;;;;;2.28;0.60;;;5.50;99.90;;;;;;4979045;28;20199;-72
2022/01/09 00:51:18;;;;;;;0.70;0.70;;;5.50;99.90;;;;;;4977106;28;20199;-72
2022/01/09 00:53:44;;;;;;;0.60;0.60;;;5.50;99.90;;;;;;4980418;28;20624;-72
2022/01/09 00:56:11;;;;;;;0.60;0.60;;;5.50;99.90;;;;;;4981602;28;20619;-72
2022/01/09 00:58:37;;;;;;;2.75;0.63;;;5.50;99.90;;;;;;4980491;28;20354;-72
2022/01/09 01:01:04;;;;;;;0.50;0.50;;;5.50;99.90;;;;;;4980908;28;20199;-72
2022/01/09 01:03:30;;;;;;;0.85;0.85;;;5.50;99.90;;;;;;4981523;28;20214;-72
2022/01/09 01:05:56;;;;;;;0.60;0.60;;;5.50;99.90;;;;;;4981526;28;20227;-72
2022/01/09 01:08:23;;;;;;;0.55;0.55;;;5.50;99.90;;;;;;4981527;28;20226;-71
2022/01/09 01:10:49;;;;;;;0.60;0.57;;;5.50;99.90;;;;;;4981483;28;20246;-71
2022/01/09 01:13:16;;;;;;;0.60;0.60;;;5.50;99.90;;;;;;4979588;28;20271;-72
2022/01/09 01:15:42;;;;;;;0.57;0.52;;;5.50;99.90;;;;;;4979591;28;20207;-73
2022/01/09 01:18:09;;;;;;;0.60;0.60;;;5.60;99.90;;;;;;4983131;28;20237;-72
2022/01/09 01:20:36;;;;;;;0.63;0.63;;;5.60;99.90;;;;;;4965566;28;20203;-72
2022/01/09 01:23:03;;;;;;;0.52;0.52;;;5.60;99.90;;;;;;4981695;28;20239;-70
2022/01/09 01:25:29;;;;;;;0.50;0.50;;;5.60;99.90;;;;;;4981713;28;20222;-72
2022/01/09 01:27:56;;;;;;;4.22;0.80;;;5.70;99.90;;;;;;4980759;28;20220;-74
2022/01/09 01:30:22;;;;;;;0.93;0.70;;;5.70;99.90;;;;;;4981854;28;20203;-73
2022/01/09 01:32:49;;;;;;;0.68;0.68;;;5.60;99.90;;;;;;4982285;28;20203;-72
2022/01/09 01:35:16;;;;;;;1.02;0.60;;;5.60;99.90;;;;;;4983171;28;20200;-72
2022/01/09 01:37:43;;;;;;;0.85;0.70;;;5.60;99.90;;;;;;4966698;28;20203;-73
2022/01/09 01:40:12;;;;;;;0.70;0.70;;;5.60;99.90;;;;;;4983350;28;20281;-73
2022/01/09 01:42:39;;;;;;;0.98;0.82;;;5.60;99.90;;;;;;4982545;28;20278;-73
2022/01/09 01:45:06;;;;;;;1.10;1.00;;;5.60;99.90;;;;;;4983443;28;20361;-73
2022/01/09 01:47:33;;;;;;;0.70;0.70;;;5.60;99.90;;;;;;4982664;28;20309;-73
2022/01/09 01:50:00;;;;;;;1.10;0.70;;;5.60;99.90;;;;;;4982848;28;20286;-73
2022/01/09 01:52:31;;;;;;;0.70;0.70;;;5.60;99.90;;;;;;4965576;28;20195;-73
2022/01/09 01:54:58;;;;;;;0.75;0.75;;;5.60;99.90;;;;;;4983069;28;20286;-73
2022/01/09 01:57:25;;;;;;;0.88;0.70;;;5.60;99.90;;;;;;4982204;28;20263;-73
2022/01/09 01:59:51;;;;;;;1.00;1.00;;;5.60;99.90;;;;;;4981758;28;20679;-73
2022/01/09 02:02:17;;;;;;;1.20;0.73;;;5.60;99.90;;;;;;4963746;28;20254;-73
2022/01/09 02:04:44;;;;;;;1.58;0.88;;;5.60;99.90;;;;;;4981694;28;20282;-73
2022/01/09 02:07:10;;;;;;;0.60;0.60;;;5.60;99.90;;;;;;4981971;28;20253;-74
2022/01/09 02:09:37;;;;;;;1.02;0.70;;;5.60;99.90;;;;;;4981992;28;20195;-73
2022/01/09 02:12:04;;;;;;;0.70;0.60;;;5.60;99.90;;;;;;4981922;28;20203;-73
2022/01/09 02:14:34;;;;;;;0.80;0.70;;;5.60;99.90;;;;;;4982985;28;20286;-73
2022/01/09 02:17:04;;;;;;;2.83;2.63;;;5.70;99.90;;;;;;4966613;28;20184;-73
2022/01/09 02:19:31;;;;;;;2.15;1.92;;;5.70;99.90;;;;;;4982995;28;20282;-73
2022/01/09 02:21:59;;;;;;;7.65;6.95;;;5.70;99.90;;;;;;4982049;28;20227;-73
2022/01/09 02:24:25;;;;;;;2.47;1.58;;;5.70;99.90;;;;;;4983343;28;20567;-73
2022/01/09 02:26:52;;;;;;;1.80;1.70;;;5.70;99.90;;;;;;4981985;28;20652;-73
2022/01/09 02:29:22;;;;;;;1.75;1.23;;;5.70;99.90;;;;;;4965415;28;20278;-73
2022/01/09 02:31:50;;;;;;;1.90;1.00;;;5.70;99.90;;;;;;4980169;28;20210;-73
2022/01/09 02:34:16;;;;;;;0.75;0.75;;;5.70;99.90;;;;;;4981479;28;20279;-73
2022/01/09 02:36:43;;;;;;;1.27;0.77;;;5.70;99.90;;;;;;4980085;28;20208;-73
2022/01/09 02:39:12;;;;;;;1.10;1.00;;;5.70;99.90;;;;;;4980148;28;20215;-73
2022/01/09 02:41:39;;;;;;;1.88;1.00;;;5.70;99.90;;;;;;4981118;28;20207;-73
2022/01/09 02:44:10;;;;;;;3.13;0.80;;;5.70;99.90;;;;;;4980448;28;20208;-73
2022/01/09 02:49:07;;;;;;;2.08;0.70;;;5.70;99.90;;;;;;4979578;28;20204;-72
2022/01/09 02:51:39;;;;;;;2.28;0.80;;;5.80;99.90;;;;;;4979078;28;20199;-73
2022/01/09 02:56:54;;;;;;;1.75;0.80;;;5.80;99.90;;;;;;4978585;28;20188;-71
2022/01/09 02:59:20;;;;;;;1.33;0.80;;;5.80;99.90;;;;;;4961890;28;20208;-71
2022/01/09 03:01:47;;;;;;;1.13;0.70;;;5.80;99.90;;;;;;4979803;28;20203;-72
2022/01/09 03:04:13;;;;;;;2.25;1.08;;;5.80;99.90;;;;;;4980706;28;20199;-71
2022/01/09 03:06:40;;;;;;;1.40;0.60;;;5.80;99.90;;;;;;4981159;28;20224;-74
2022/01/09 03:09:07;;;;;;;0.50;0.50;;;5.80;99.90;;;;;;4981065;28;20214;-73
2022/01/09 03:11:35;;;;;;;0.70;0.70;;;5.70;99.90;;;;;;4980328;28;20715;-73
2022/01/09 03:14:06;;;;;;;0.60;0.60;;;5.70;99.90;;;;;;4980786;28;20191;-71
2022/01/09 03:16:33;;;;;;;0.50;0.50;;;5.70;99.90;;;;;;4979708;28;20290;-73
2022/01/09 03:18:59;;;;;;;0.60;0.60;;;5.70;99.90;;;;;;4979721;28;20282;-73
2022/01/09 03:21:26;;;;;;;0.50;0.50;;;5.70;99.90;;;;;;4979332;28;20231;-73
2022/01/09 03:23:52;;;;;;;0.60;0.60;;;5.60;99.90;;;;;;4979614;28;20243;-73
2022/01/09 03:26:19;;;;;;;1.05;0.70;;;5.60;99.90;;;;;;4979470;28;20281;-73
2022/01/09 03:28:47;;;;;;;0.70;0.60;;;5.60;99.90;;;;;;4961663;28;20231;-73
2022/01/09 03:31:13;;;;;;;0.63;0.50;;;5.60;99.90;;;;;;4978848;28;20227;-73
2022/01/09 03:33:40;;;;;;;0.50;0.50;;;5.60;99.90;;;;;;4961009;28;20711;-73
2022/01/09 03:36:06;;;;;;;0.73;0.70;;;5.60;99.90;;;;;;4978366;28;20201;-71
2022/01/09 03:38:32;;;;;;;0.50;0.50;;;5.60;99.90;;;;;;4978963;28;20202;-71
2022/01/09 03:40:58;;;;;;;0.73;0.60;;;5.50;99.90;;;;;;4979354;28;20211;-71
2022/01/09 03:43:25;;;;;;;0.60;0.60;;;5.60;99.90;;;;;;4977166;28;20211;-71
2022/01/09 03:45:51;;;;;;;0.50;0.50;;;5.50;99.90;;;;;;4979162;28;20286;-72
2022/01/09 03:48:17;;;;;;;0.50;0.50;;;5.60;99.90;;;;;;4981217;28;20223;-72
2022/01/09 03:50:50;;;;;;;0.90;0.60;;;5.50;99.90;;;;;;4979545;28;20553;-72
2022/01/09 03:53:16;;;;;;;0.50;0.50;;;5.60;99.90;;;;;;4979323;28;20629;-72
2022/01/09 03:55:42;;;;;;;0.60;0.60;;;5.50;99.90;;;;;;4980608;28;20203;-71
2022/01/09 03:58:09;;;;;;;0.50;0.50;;;5.50;99.90;;;;;;4980349;28;20286;-73
2022/01/09 04:00:35;;;;;;;0.60;0.60;;;5.50;99.90;;;;;;4982448;28;20206;-73
2022/01/09 04:03:02;;;;;;;0.52;0.50;;;5.60;99.90;;;;;;4998836;28;20262;-73
2022/01/09 04:05:28;;;;;;;0.60;0.50;;;5.60;99.90;;;;;;4998549;28;20555;-72
2022/01/09 04:07:54;;;;;;;0.50;0.50;;;5.50;99.90;;;;;;4980179;28;20611;-73
2022/01/09 04:10:24;;;;;;;0.50;0.50;;;5.50;99.90;;;;;;4998011;28;20210;-73
2022/01/09 04:12:58;;;;;;;0.55;0.50;;;5.50;99.90;;;;;;4997456;28;20553;-72
2022/01/09 04:15:24;;;;;;;0.60;0.60;;;5.40;99.90;;;;;;4997371;28;20246;-72
2022/01/09 04:17:54;;;;;;;0.60;0.60;;;5.30;99.90;;;;;;4997031;28;20199;-73
2022/01/09 04:20:22;;;;;;;1.15;0.60;;;5.20;99.90;;;;;;4997525;28;20190;-74
2022/01/09 04:22:49;;;;;;;1.25;0.60;;;5.20;99.90;;;;;;4997516;28;20231;-74
2022/01/09 04:25:16;;;;;;;0.60;0.50;;;5.10;99.90;;;;;;4998238;28;20210;-73
2022/01/09 04:27:43;;;;;;;0.95;0.60;;;5.00;99.90;;;;;;4996492;28;20586;-74
2022/01/09 04:30:10;;;;;;;0.60;0.60;;;4.90;99.90;;;;;;4999450;28;20210;-73
2022/01/09 04:32:38;;;;;;;0.60;0.50;;;4.80;99.90;;;;;;4999002;28;20205;-73
2022/01/09 04:35:05;;;;;;;0.98;0.70;;;4.80;99.90;;;;;;4998665;28;20289;-74
2022/01/09 04:37:33;;;;;;;0.65;0.65;;;4.80;99.90;;;;;;4999227;28;20282;-74
2022/01/09 04:40:00;;;;;;;1.20;0.57;;;4.70;99.90;;;;;;4998056;28;20546;-74
2022/01/09 04:42:35;;;;;;;0.70;0.50;;;4.70;99.90;;;;;;4981161;28;20547;-74
2022/01/09 04:45:01;;;;;;;0.50;0.50;;;4.60;99.90;;;;;;4998245;28;20364;-74
2022/01/09 04:47:28;;;;;;;0.50;0.50;;;4.60;99.90;;;;;;4980749;28;20222;-74
2022/01/09 04:49:55;;;;;;;0.50;0.50;;;4.60;99.90;;;;;;4997828;28;20293;-74
2022/01/09 04:52:26;;;;;;;1.13;0.60;;;4.60;99.90;;;;;;5000422;28;20260;-74
2022/01/09 04:54:52;;;;;;;1.15;1.05;;;4.60;99.90;;;;;;5002751;28;20202;-74
2022/01/09 04:57:18;;;;;;;0.57;0.55;;;4.50;99.90;;;;;;5003337;28;20258;-74
2022/01/09 04:59:45;;;;;;;0.80;0.80;;;4.50;99.90;;;;;;5002109;28;20214;-73
2022/01/09 05:02:11;;;;;;;0.52;0.52;;;4.50;99.90;;;;;;5001507;28;20205;-74
2022/01/09 05:04:38;;;;;;;0.50;0.50;;;4.50;99.90;;;;;;5003463;28;20658;-74
2022/01/09 05:07:04;;;;;;;0.60;0.60;;;4.50;99.90;;;;;;5002684;28;20230;-74
2022/01/09 05:09:30;;;;;;;0.75;0.60;;;4.50;99.90;;;;;;5003074;28;20202;-74
2022/01/09 05:11:58;;;;;;;0.80;0.60;;;4.50;99.90;;;;;;5002419;28;20281;-74
2022/01/09 05:14:24;;;;;;;2.95;0.60;;;4.50;99.90;;;;;;5002862;28;20289;-75
2022/01/09 05:16:51;;;;;;;0.70;0.70;;;4.50;99.90;;;;;;5001669;28;20202;-74
2022/01/09 05:19:20;;;;;;;1.33;1.00;;;4.50;99.90;;;;;;5001765;28;20213;-73
2022/01/09 05:21:47;;;;;;;2.17;1.10;;;4.50;99.90;;;;;;5003135;28;20316;-73
2022/01/09 05:24:15;;;;;;;5.85;1.08;;;4.50;99.90;;;;;;5003110;28;20655;-74
2022/01/09 05:26:42;;;;;;;1.58;0.90;;;4.50;99.90;;;;;;5002080;28;20202;-73
2022/01/09 05:29:08;;;;;;;3.10;1.17;;;4.60;99.90;;;;;;4999491;28;20222;-73
2022/01/09 05:31:34;;;;;;;2.60;0.95;;;4.60;99.90;;;;;;4999473;28;20207;-75
2022/01/09 05:34:01;;;;;;;6.13;1.38;;;4.60;99.90;;;;;;5000037;28;20199;-73
2022/01/09 05:36:27;;;;;;;3.20;1.13;;;4.60;99.90;;;;;;4999626;28;20670;-73
2022/01/09 05:38:54;;;;;;;7.03;1.23;;;4.70;99.90;;;;;;4999983;28;20210;-73
2022/01/09 05:41:21;;;;;;;2.13;1.00;;;4.80;99.90;;;;;;5000621;28;20593;-73
2022/01/09 05:43:48;;;;;;;3.22;1.02;;;4.80;99.90;;;;;;4998654;28;20206;-72
2022/01/09 05:46:15;;;;;;;3.17;1.50;;;4.80;99.90;;;;;;5000919;28;20206;-73
2022/01/09 05:48:41;;;;;;;1.52;0.90;;;4.80;99.90;;;;;;5001203;28;20326;-72
2022/01/09 05:51:07;;;;;;;2.35;1.25;;;4.90;99.90;;;;;;5000421;28;20561;-74
2022/01/09 05:53:34;;;;;;;3.50;1.17;;;4.80;99.90;;;;;;5002046;28;20283;-74
2022/01/09 05:56:04;;;;;;;2.55;1.00;;;4.90;99.90;;;;;;5001915;28;20285;-74
2022/01/09 05:58:31;;;;;;;3.97;1.17;;;4.90;99.90;;;;;;5000974;28;20297;-74
2022/01/09 06:00:57;;;;;;;1.63;1.45;;;4.90;99.90;;;;;;5000303;28;20209;-73
2022/01/09 06:03:23;;;;;;;3.38;1.48;;;5.00;99.90;;;;;;5001365;28;20206;-73
2022/01/09 06:05:51;;;;;;;3.30;1.30;;;5.10;99.90;;;;;;5000798;28;20268;-73
2022/01/09 06:08:17;;;;;;;3.13;1.02;;;5.10;99.90;;;;;;5003016;28;20301;-73
2022/01/09 06:10:43;;;;;;;8.88;1.58;;;5.00;99.90;;;;;;4984327;28;20547;-73
2022/01/09 06:13:10;;;;;;;1.20;1.10;;;5.00;99.90;;;;;;5000930;28;20199;-74
2022/01/09 06:15:36;;;;;;;2.90;1.15;;;5.00;99.90;;;;;;4982999;28;20666;-74
2022/01/09 06:18:03;;;;;;;1.08;1.00;;;5.00;99.90;;;;;;4999501;28;20202;-74
2022/01/09 06:20:29;;;;;;;1.63;1.48;;;5.10;99.90;;;;;;5000753;28;20214;-72
2022/01/09 06:22:55;;;;;;;2.72;1.15;;;5.20;99.90;;;;;;4999958;28;20579;-74
2022/01/09 06:25:22;;;;;;;3.03;1.60;;;5.10;99.90;;;;;;5000355;28;20203;-73
2022/01/09 06:27:48;;;;;;;5.20;1.40;;;5.10;99.90;;;;;;4997958;28;20222;-74
2022/01/09 06:30:15;;;;;;;2.80;1.13;;;5.10;99.90;;;;;;4998685;28;20605;-74
2022/01/09 06:32:41;;;;;;;4.50;1.23;;;5.00;99.90;;;;;;4999048;28;20198;-74
2022/01/09 06:35:10;;;;;;;3.38;1.58;;;5.00;99.90;;;;;;4999126;28;20236;-74
2022/01/09 06:37:36;;;;;;;3.25;1.35;;;5.10;99.90;;;;;;4998873;28;20202;-74
2022/01/09 06:40:04;;;;;;;2.15;1.38;;;5.10;99.90;;;;;;4998802;28;20285;-73
2022/01/09 06:42:31;;;;;;;7.47;1.15;;;5.20;99.90;;;;;;4979801;28;20214;-74
2022/01/09 06:44:57;;;;;;;2.80;1.52;;;5.10;99.90;;;;;;4979683;28;20662;-74
2022/01/09 06:47:23;;;;;;;5.35;1.77;;;5.20;99.90;;;;;;4979311;28;20203;-74
2022/01/09 06:49:50;;;;;;;3.47;1.48;;;5.20;99.90;;;;;;4980706;28;20230;-74
2022/01/09 06:52:16;;;;;;;2.92;1.25;;;5.20;99.90;;;;;;4982721;28;20215;-74
2022/01/09 06:54:43;;;;;;;3.28;1.40;;;5.20;99.90;;;;;;4980087;28;20207;-73
2022/01/09 06:57:09;;;;;;;3.35;1.55;;;5.20;99.90;;;;;;4980016;28;20210;-73
2022/01/09 06:59:36;;;;;;;10.15;2.10;;;5.20;99.90;;;;;;4978693;28;20211;-74
2022/01/09 07:02:02;;;;;;;3.45;1.45;;;5.10;99.90;;;;;;4977667;28;20207;-74
2022/01/09 07:04:29;;;;;;;5.90;1.60;;;5.10;99.90;;;;;;4994468;28;20206;-73
2022/01/09 07:06:55;;;;;;;3.00;1.30;;;5.10;99.90;;;;;;5000145;28;20756;-73
2022/01/09 07:09:23;;;;;;;2.72;1.70;;;5.10;99.90;;;;;;5000011;28;20637;-73
2022/01/09 07:11:49;;;;;;;5.18;1.63;;;5.10;99.90;;;;;;4999400;28;20210;-73
2022/01/09 07:14:16;;;;;;;6.68;1.98;;;5.10;99.90;;;;;;4999608;28;20245;-73
2022/01/09 07:16:42;;;;;;;4.68;1.63;;;5.10;99.90;;;;;;4999160;28;20198;-73
2022/01/09 07:19:09;;;;;;;3.38;1.60;;;5.10;99.90;;;;;;5000245;28;20210;-73
2022/01/09 07:21:35;;;;;;;5.88;1.60;;;5.10;99.90;;;;;;5000052;28;20706;-74
2022/01/09 07:24:02;;;;;;;3.75;1.67;;;5.10;99.90;;;;;;4999333;28;20210;-72
2022/01/09 07:26:28;;;;;;;6.20;1.45;;;5.00;99.90;;;;;;5000909;28;20218;-72
2022/01/09 07:28:55;;;;;;;5.90;1.65;;;5.00;99.90;;;;;;5000157;28;20578;-72
2022/01/09 07:31:21;;;;;;;5.25;2.25;;;5.00;99.90;;;;;;5001032;28;20281;-72
2022/01/09 07:33:47;;;;;;;8.50;1.60;;;5.00;99.90;;;;;;5001369;28;20199;-72
2022/01/09 07:36:16;;;;;;;1.35;1.15;;;4.90;99.90;;;;;;5000616;28;20247;-72
2022/01/09 07:38:42;;;;;;;4.57;1.30;;;5.00;99.90;;;;;;4982673;28;20298;-73
2022/01/09 07:41:12;;;;;;;7.75;1.70;;;4.90;99.90;;;;;;5000124;28;20207;-73
2022/01/09 07:43:39;;;;;;;3.72;1.70;;;4.90;99.90;;;;;;4983052;28;20211;-73
2022/01/09 07:46:06;;;;;;;9.07;2.60;;;4.90;99.90;;;;;;4962495;28;20551;-72
2022/01/09 07:48:32;;;;;;;3.33;1.20;;;4.80;99.90;;;;;;4979208;28;20234;-74
2022/01/09 07:50:59;;;;;;;3.58;2.00;;;4.80;99.90;;;;;;4978521;28;20195;-72
2022/01/09 07:53:25;;;;;;;5.35;1.60;;;4.80;99.90;;;;;;4979450;28;20204;-73
2022/01/09 07:55:52;;;;;;;5.80;1.60;;;4.80;99.90;;;;;;4981056;28;20200;-73
2022/01/09 07:58:20;;;;;;;4.60;2.05;;;4.80;99.90;;;;;;4981073;28;20219;-73
2022/01/09 08:00:46;;;;;;;3.75;2.15;;;4.70;99.90;;;;;;4980338;28;20215;-73
2022/01/09 08:03:13;;;;;;;3.58;1.63;;;4.80;99.90;;;;;;4980766;28;20207;-73
2022/01/09 08:05:41;;;;;;;9.38;1.80;;;4.70;99.90;;;;;;4979867;28;20565;-74
2022/01/09 08:08:08;;;;;;;9.63;1.70;;;4.70;99.90;;;;;;4979599;28;20246;-74
2022/01/09 08:10:34;;;;;;;2.63;1.23;;;4.70;99.90;;;;;;4962408;28;20617;-73
2022/01/09 08:13:01;;;;;;;3.72;1.20;;;4.60;99.90;;;;;;4979708;28;20203;-73
2022/01/09 08:15:28;;;;;;;2.05;1.50;;;4.50;99.90;;;;;;4980447;28;20255;-73
2022/01/09 08:17:54;;;;;;;3.63;1.60;;;4.40;99.90;;;;;;4961613;28;20679;-73
2022/01/09 08:20:21;;;;;;;3.38;1.42;;;4.40;99.90;;;;;;4979983;28;20266;-73
2022/01/09 08:22:48;;;;;;;11.13;2.28;;;4.40;99.90;;;;;;4978720;28;20707;-74
2022/01/09 08:25:17;;;;;;;4.68;1.70;;;4.50;99.90;;;;;;4977598;28;20214;-74
2022/01/09 08:27:44;;;;;;;2.45;1.65;;;4.50;99.90;;;;;;4978046;28;20686;-73
2022/01/09 08:30:13;;;;;;;6.13;1.83;;;4.60;99.90;;;;;;4975910;28;20246;-74
2022/01/09 08:32:40;;;;;;;6.65;1.85;;;4.60;99.90;;;;;;4978266;28;20223;-74
2022/01/09 08:35:07;;;;;;;6.93;1.65;;;4.70;99.90;;;;;;4977641;28;20199;-72
2022/01/09 08:37:33;;;;;;;6.97;1.88;;;4.80;99.90;;;;;;4978766;28;20207;-74
2022/01/09 08:40:00;;;;;;;7.65;2.40;;;4.80;99.90;;;;;;4978591;28;20204;-73
2022/01/09 08:42:28;;;;;;;10.13;2.10;;;4.90;99.90;;;;;;4978525;28;20211;-73
2022/01/09 08:44:55;;;;;;;7.50;2.78;;;4.90;99.90;;;;;;4978791;28;20211;-74
2022/01/09 08:47:24;;;;;;;8.05;2.25;;;5.00;99.90;;;;;;4977365;28;20342;-73
2022/01/09 08:49:51;;;;;;;9.30;3.00;;;5.10;99.90;;;;;;4979001;28;20219;-74
2022/01/09 08:52:17;;;;;;;5.88;1.75;;;5.20;99.90;;;;;;4977562;28;20559;-73
2022/01/09 08:54:44;;;;;;;7.13;1.75;;;5.30;99.90;;;;;;4946401;28;20206;-73
2022/01/09 08:57:13;;;;;;;5.25;2.25;;;5.40;99.90;;;;;;4977682;28;20203;-73
2022/01/09 08:59:39;;;;;;;12.45;2.13;;;5.50;99.90;;;;;;4961825;28;20655;-74
2022/01/09 09:02:06;;;;;;;5.70;1.67;;;5.60;99.90;;;;;;4978587;28;20234;-73
2022/01/09 09:04:33;;;;;;;5.40;2.10;;;5.60;99.90;;;;;;4978058;28;20215;-73
2022/01/09 09:06:59;;;;;;;15.73;2.10;;;5.60;99.90;;;;;;4978416;28;20223;-73
2022/01/09 09:09:26;;;;;;;9.27;1.60;;;5.50;99.90;;;;;;4979215;28;20718;-73
2022/01/09 09:11:52;;;;;;;6.88;2.47;;;5.50;99.90;;;;;;4978676;28;20210;-73
2022/01/09 09:14:20;;;;;;;9.77;2.22;;;5.50;99.90;;;;;;4979422;28;20275;-73
2022/01/09 09:16:47;;;;;;;7.90;2.45;;;5.60;99.90;;;;;;4945663;28;20558;-73
2022/01/09 09:19:13;;;;;;;11.38;1.83;;;5.70;99.90;;;;;;4979224;28;20302;-73
2022/01/09 09:21:40;;;;;;;9.60;2.50;;;5.80;99.90;;;;;;4979177;28;20330;-73
2022/01/09 09:24:07;;;;;;;3.85;1.75;;;5.80;99.90;;;;;;4977604;28;20203;-73
2022/01/09 09:26:34;;;;;;;6.30;1.88;;;5.80;99.90;;;;;;4977651;28;20208;-73
2022/01/09 09:29:00;;;;;;;8.60;3.92;;;5.80;99.90;;;;;;4977312;28;20222;-73
2022/01/09 09:31:27;;;;;;;9.80;1.95;;;5.80;99.90;;;;;;4978268;28;20199;-73
2022/01/09 09:33:53;;;;;;;9.18;2.30;;;5.80;99.90;;;;;;4977551;28;20543;-73
2022/01/09 09:36:21;;;;;;;2.55;1.65;;;5.80;99.90;;;;;;4976859;28;20204;-73
2022/01/09 09:38:48;;;;;;;2.15;1.40;;;5.70;99.90;;;;;;4962228;28;20233;-73
2022/01/09 09:41:14;;;;;;;7.90;2.53;;;5.70;99.90;;;;;;4979897;28;20214;-73
2022/01/09 09:43:41;;;;;;;5.10;2.05;;;5.70;99.90;;;;;;4978752;28;20207;-73
2022/01/09 09:46:07;;;;;;;8.93;1.88;;;5.80;99.90;;;;;;4961441;28;20234;-73
2022/01/09 09:48:33;;;;;;;10.40;2.00;;;5.90;99.90;;;;;;4981090;28;20328;-73
2022/01/09 09:51:00;;;;;;;11.02;2.10;;;5.80;99.90;;;;;;4948746;28;20199;-73
2022/01/09 09:53:26;;;;;;;10.75;2.78;;;5.70;99.90;;;;;;4962722;28;20665;-73
2022/01/09 09:55:53;;;;;;;4.40;1.85;;;5.60;99.90;;;;;;4981670;28;20195;-72
2022/01/09 09:58:22;;;;;;;4.93;1.98;;;5.60;99.90;;;;;;4980185;28;20199;-73
2022/01/09 10:00:56;;;;;;;9.70;1.85;;;5.50;99.90;;;;;;4982387;28;20290;-73
2022/01/09 10:03:32;;;;;;;6.72;1.40;;;5.50;99.90;;;;;;4980863;28;20187;-73
2022/01/09 10:05:59;;;;;;;8.23;1.50;;;5.50;99.90;;;;;;4967685;28;20230;-73
2022/01/09 10:08:39;;;;;;;7.28;1.90;;;5.50;99.90;;;;;;5000199;28;20290;-73
2022/01/09 10:11:16;;;;;;;5.05;1.50;;;5.50;99.90;;;;;;5000157;28;20630;-72
2022/01/09 10:13:43;;;;;;;4.00;1.48;;;5.50;99.90;;;;;;4999368;28;20210;-72
2022/01/09 10:16:10;;;;;;;10.40;2.22;;;5.60;99.90;;;;;;4982688;28;20693;-73
2022/01/09 10:18:45;;;;;;;6.05;2.17;;;5.60;99.90;;;;;;4999372;28;20198;-72
2022/01/09 10:21:14;;;;;;;7.85;2.10;;;5.70;99.90;;;;;;5000197;28;20191;-73
2022/01/09 10:24:02;;;;;;;7.57;1.75;;;5.70;99.90;;;;;;5000030;28;20206;-73
2022/01/09 10:26:31;;;;;;;5.10;1.98;;;5.70;99.90;;;;;;4982616;28;20210;-73
2022/01/09 10:28:59;;;;;;;6.10;2.17;;;5.80;99.90;;;;;;4999871;28;20253;-73
2022/01/09 10:31:26;;;;;;;8.15;2.20;;;5.80;99.90;;;;;;4999507;28;20607;-73
2022/01/09 10:33:59;;;;;;;4.95;2.00;;;5.70;99.90;;;;;;4999101;28;20194;-74
2022/01/09 10:36:43;;;;;;;5.28;1.80;;;5.70;99.90;;;;;;4981961;28;20198;-72
2022/01/09 10:39:16;;;;;;;6.70;2.00;;;5.60;99.90;;;;;;5000184;28;20213;-71
2022/01/09 10:41:58;;;;;;;2.95;1.98;;;5.60;99.90;;;;;;4985791;28;20217;-72
2022/01/09 10:44:31;;;;;;;4.75;1.83;;;5.60;99.90;;;;;;4965765;28;20211;-72
2022/01/09 10:47:06;;;;;;;2.65;1.67;;;5.60;99.90;;;;;;4998199;28;20211;-72
2022/01/09 10:49:42;;;;;;;2.00;1.10;;;5.70;99.90;;;;;;4998904;28;20232;-72
2022/01/09 10:52:22;;;;;;;2.80;1.13;;;5.90;99.90;;;;;;4998623;28;20214;-73
2022/01/09 10:54:50;;;;;;;1.73;1.52;;;6.30;99.90;;;;;;4998942;28;20209;-72
2022/01/09 10:57:22;;;;;;;2.75;1.20;;;6.40;99.90;;;;;;4997794;28;20249;-73
2022/01/09 10:59:49;;;;;;;1.70;1.10;;;6.60;99.90;;;;;;4997426;28;20624;-73
2022/01/09 11:02:17;;;;;;;1.20;1.00;;;6.70;99.90;;;;;;4999002;28;20210;-73
2022/01/09 11:04:48;;;;;;;2.67;1.50;;;6.70;99.90;;;;;;4999627;28;20281;-73
2022/01/09 11:07:15;;;;;;;2.55;0.90;;;6.90;99.90;;;;;;4999255;28;20231;-72
2022/01/09 11:09:47;;;;;;;2.17;1.25;;;6.70;99.90;;;;;;4998402;28;20586;-73
2022/01/09 11:12:17;;;;;;;1.98;0.90;;;6.70;99.90;;;;;;4999083;28;20191;-71
2022/01/09 11:14:44;;;;;;;2.13;1.20;;;6.60;99.90;;;;;;4999520;28;20206;-73
2022/01/09 11:17:14;;;;;;;2.03;1.00;;;7.00;99.90;;;;;;5000083;28;20281;-73
2022/01/09 11:19:42;;;;;;;2.88;2.65;;;6.90;99.90;;;;;;4983379;28;20285;-74
2022/01/09 11:22:12;;;;;;;5.20;3.38;;;6.50;99.90;;;;;;5000283;28;20611;-72
2022/01/09 11:24:51;;;;;;;1.90;0.95;;;6.80;99.90;;;;;;4980459;28;20619;-72
2022/01/09 11:27:40;;;;;;;2.88;1.65;;;6.60;99.90;;;;;;4998574;28;20278;-72
2022/01/09 11:30:44;;;;;;;4.10;1.73;;;6.00;99.90;;;;;;4998763;28;20218;-71
2022/01/09 11:33:22;;;;;;;7.53;1.40;;;6.10;99.90;;;;;;4996498;28;20194;-73
2022/01/09 11:36:36;;;;;;;2.58;1.48;;;6.20;99.90;;;;;;4997262;28;20279;-72
2022/01/09 11:39:14;;;;;;;5.63;2.45;;;6.40;99.90;;;;;;4937342;29;20734;-72
2022/01/09 11:41:43;;;;;;;4.22;1.88;;;6.40;99.90;;;;;;4996555;28;20273;-72
2022/01/09 11:44:14;;;;;;;4.70;1.33;;;6.60;99.90;;;;;;4999460;28;20206;-72
2022/01/09 11:47:06;;;;;;;1.55;1.40;;;6.40;99.90;;;;;;4981807;28;20203;-72
2022/01/09 11:49:53;;;;;;;5.55;1.83;;;6.50;99.90;;;;;;4998718;28;20221;-74
2022/01/09 11:52:21;;;;;;;5.20;1.67;;;6.60;99.90;;;;;;4987334;28;20203;-72
2022/01/09 11:54:59;;;;;;;2.05;1.95;;;6.50;99.90;;;;;;4998315;28;20197;-72
2022/01/09 11:57:45;;;;;;;5.50;2.08;;;6.60;99.90;;;;;;4998688;28;20277;-73
2022/01/09 12:00:29;;;;;;;3.08;1.40;;;6.90;99.90;;;;;;4996369;28;20195;-71
2022/01/09 12:02:56;;;;;;;3.13;1.38;;;7.20;99.90;;;;;;4997532;28;20191;-73
2022/01/09 12:05:23;;;;;;;3.63;1.40;;;7.70;99.90;;;;;;4996743;28;20202;-72
2022/01/09 12:07:53;;;;;;;2.92;1.40;;;8.00;99.90;;;;;;4998203;28;20223;-72
2022/01/09 12:10:27;;;;;;;4.15;1.90;;;8.40;99.90;;;;;;4980312;28;20230;-72
2022/01/09 12:12:54;;;;;;;3.00;1.38;;;7.70;99.90;;;;;;4998740;28;20628;-71
2022/01/09 12:15:35;;;;;;;3.92;1.45;;;7.30;99.90;;;;;;4998553;28;20203;-72
2022/01/09 12:18:04;;;;;;;4.15;1.60;;;7.20;99.90;;;;;;4997161;28;20194;-73
2022/01/09 12:20:37;;;;;;;2.75;1.30;;;7.10;99.90;;;;;;4979609;28;20199;-72
2022/01/09 12:23:08;;;;;;;6.40;1.98;;;6.60;99.90;;;;;;4998203;28;20695;-73
2022/01/09 12:25:34;;;;;;;3.63;1.70;;;6.40;99.90;;;;;;4978978;28;20211;-71
2022/01/09 12:28:03;;;;;;;5.15;1.67;;;6.50;99.90;;;;;;4996405;28;20206;-72
2022/01/09 12:30:33;;;;;;;1.65;1.20;;;6.60;99.90;;;;;;4979077;28;20226;-72
2022/01/09 12:33:10;;;;;;;5.28;2.00;;;6.70;99.90;;;;;;4997307;28;20207;-71
2022/01/09 12:35:54;;;;;;;3.05;1.48;;;7.30;99.90;;;;;;4979740;28;20202;-71
2022/01/09 12:38:22;;;;;;;6.00;1.70;;;7.20;99.90;;;;;;4997058;28;20278;-71
2022/01/09 12:41:00;;;;;;;3.17;1.50;;;6.80;99.90;;;;;;4998010;28;20199;-71
2022/01/09 12:43:27;;;;;;;3.90;1.48;;;6.80;99.90;;;;;;4995816;28;20213;-72
2022/01/09 12:45:54;;;;;;;2.47;1.38;;;6.70;99.90;;;;;;4997360;28;20210;-71
2022/01/09 12:48:28;;;;;;;3.63;1.40;;;6.60;99.90;;;;;;4980630;28;20297;-71
2022/01/09 12:50:56;;;;;;;3.92;1.70;;;7.00;99.90;;;;;;4998088;28;20214;-71
2022/01/09 12:53:29;;;;;;;3.42;1.70;;;7.00;99.90;;;;;;4979174;28;20202;-71
2022/01/09 12:55:59;;;;;;;3.38;2.00;;;6.60;99.90;;;;;;4998918;28;20258;-74
2022/01/09 12:58:31;;;;;;;7.30;1.63;;;6.60;99.90;;;;;;4998593;28;20195;-71
2022/01/09 13:00:59;;;;;;;2.97;1.25;;;6.50;99.90;;;;;;4999086;28;20182;-72
2022/01/09 13:03:30;;;;;;;3.60;1.60;;;6.40;99.90;;;;;;4998045;28;20202;-72
2022/01/09 13:06:03;;;;;;;5.38;1.73;;;6.40;99.90;;;;;;4998026;28;20785;-72
2022/01/09 13:08:30;;;;;;;4.40;1.42;;;6.20;99.90;;;;;;4998044;28;20679;-73
2022/01/09 13:11:03;;;;;;;6.07;1.40;;;6.40;99.90;;;;;;4995354;28;20597;-71